Terminal Aerodrome Forecast
Issued by NWS

Home | Current Version | Previous Version | Text Only | Print | Product List | Glossary On
Versions: 1 2 3 4 5 6 7 8 9 10 11 12 13 14 15 16 17 18 19 20 21
000
FTUS44 KHGX 211414 AAB
TAFCXO
TAF AMD
KCXO 211414Z 2114/2212 00000KT P6SM SCT018
     FM211600 17006KT P6SM SCT025 BKN250
     FM220000 36005KT P6SM BKN035 BKN250
     FM220400 36008KT P6SM VCSH BKN025
     FM221000 36009G19KT P6SM BKN015=

USA.gov is the U.S. government's official web portal to all federal, state and local government web resources and services.